sensor_id;sensor_type;location;lat;lon;timestamp;temperature;humidity
8886;DHT22;4479;51.162;13.906;2023-12-20T00:13:08;9.50;99.90
8886;DHT22;4479;51.162;13.906;2023-12-20T00:33:13;9.30;99.90
8886;DHT22;4479;51.162;13.906;2023-12-20T00:53:20;9.20;99.90
8886;DHT22;4479;51.162;13.906;2023-12-20T01:13:26;9.10;99.90
8886;DHT22;4479;51.162;13.906;2023-12-20T01:33:32;9.00;99.90
8886;DHT22;4479;51.162;13.906;2023-12-20T01:53:38;8.90;99.90
8886;DHT22;4479;51.162;13.906;2023-12-20T02:03:42;8.90;99.90
8886;DHT22;4479;51.162;13.906;2023-12-20T02:13:45;8.80;99.90
8886;DHT22;4479;51.162;13.906;2023-12-20T02:23:48;8.80;99.90
8886;DHT22;4479;51.162;13.906;2023-12-20T02:43:54;6.70;99.90
8886;DHT22;4479;51.162;13.906;2023-12-20T03:04:00;8.70;99.90
8886;DHT22;4479;51.162;13.906;2023-12-20T03:24:06;8.60;99.90
8886;DHT22;4479;51.162;13.906;2023-12-20T03:44:12;8.60;99.90
8886;DHT22;4479;51.162;13.906;2023-12-20T04:04:18;8.50;99.90
8886;DHT22;4479;51.162;13.906;2023-12-20T04:24:24;8.60;99.90
8886;DHT22;4479;51.162;13.906;2023-12-20T04:44:30;8.50;99.90
8886;DHT22;4479;51.162;13.906;2023-12-20T05:04:35;8.50;99.90
8886;DHT22;4479;51.162;13.906;2023-12-20T05:24:41;8.50;99.90
8886;DHT22;4479;51.162;13.906;2023-12-20T05:44:47;8.40;99.90
8886;DHT22;4479;51.162;13.906;2023-12-20T06:04:52;8.50;99.90
8886;DHT22;4479;51.162;13.906;2023-12-20T06:24:59;8.50;99.90
8886;DHT22;4479;51.162;13.906;2023-12-20T06:45:06;8.50;99.90
8886;DHT22;4479;51.162;13.906;2023-12-20T07:05:12;8.40;99.90
8886;DHT22;4479;51.162;13.906;2023-12-20T07:25:18;8.40;99.90
8886;DHT22;4479;51.162;13.906;2023-12-20T07:45:27;8.20;99.90
8886;DHT22;4479;51.162;13.906;2023-12-20T08:05:33;8.10;99.90
8886;DHT22;4479;51.162;13.906;2023-12-20T08:25:39;8.00;99.90
8886;DHT22;4479;51.162;13.906;2023-12-20T08:45:45;5.70;99.90
8886;DHT22;4479;51.162;13.906;2023-12-20T09:05:51;8.90;99.90
8886;DHT22;4479;51.162;13.906;2023-12-20T09:25:57;9.10;99.90
8886;DHT22;4479;51.162;13.906;2023-12-20T09:46:06;9.70;99.90
8886;DHT22;4479;51.162;13.906;2023-12-20T10:06:12;9.90;99.90
8886;DHT22;4479;51.162;13.906;2023-12-20T10:26:23;10.10;99.90
8886;DHT22;4479;51.162;13.906;2023-12-20T10:36:28;10.10;99.90
8886;DHT22;4479;51.162;13.906;2023-12-20T10:46:33;10.20;99.90
8886;DHT22;4479;51.162;13.906;2023-12-20T10:56:37;10.20;99.90
8886;DHT22;4479;51.162;13.906;2023-12-20T11:06:46;10.10;99.90
8886;DHT22;4479;51.162;13.906;2023-12-20T11:17:05;10.20;99.90
8886;DHT22;4479;51.162;13.906;2023-12-20T11:27:09;10.20;99.90
8886;DHT22;4479;51.162;13.906;2023-12-20T11:37:13;10.10;99.90
8886;DHT22;4479;51.162;13.906;2023-12-20T11:47:16;10.00;99.90
8886;DHT22;4479;51.162;13.906;2023-12-20T12:07:23;10.10;99.90
8886;DHT22;4479;51.162;13.906;2023-12-20T12:27:29;10.30;99.90
8886;DHT22;4479;51.162;13.906;2023-12-20T12:47:37;10.30;99.90
8886;DHT22;4479;51.162;13.906;2023-12-20T13:07:43;10.30;99.90
8886;DHT22;4479;51.162;13.906;2023-12-20T13:27:50;10.20;99.90
8886;DHT22;4479;51.162;13.906;2023-12-20T13:47:55;10.10;99.90
8886;DHT22;4479;51.162;13.906;2023-12-20T14:08:01;10.10;99.90
8886;DHT22;4479;51.162;13.906;2023-12-20T14:18:05;10.00;99.90
8886;DHT22;4479;51.162;13.906;2023-12-20T14:28:09;10.00;99.90
8886;DHT22;4479;51.162;13.906;2023-12-20T14:48:18;9.60;99.90
8886;DHT22;4479;51.162;13.906;2023-12-20T15:08:25;9.50;99.90
8886;DHT22;4479;51.162;13.906;2023-12-20T15:28:32;9.50;99.90
8886;DHT22;4479;51.162;13.906;2023-12-20T15:48:38;9.50;99.90
8886;DHT22;4479;51.162;13.906;2023-12-20T16:08:43;9.50;99.90
8886;DHT22;4479;51.162;13.906;2023-12-20T16:28:50;10.40;99.90
8886;DHT22;4479;51.162;13.906;2023-12-20T16:48:55;9.40;99.90
8886;DHT22;4479;51.162;13.906;2023-12-20T17:09:02;9.30;99.90
8886;DHT22;4479;51.162;13.906;2023-12-20T17:29:07;9.00;99.90
8886;DHT22;4479;51.162;13.906;2023-12-20T17:49:15;8.90;99.90
8886;DHT22;4479;51.162;13.906;2023-12-20T18:09:23;8.90;99.90
8886;DHT22;4479;51.162;13.906;2023-12-20T18:29:29;8.70;99.90
8886;DHT22;4479;51.162;13.906;2023-12-20T18:49:35;8.40;99.90
8886;DHT22;4479;51.162;13.906;2023-12-20T19:09:40;8.10;99.90
8886;DHT22;4479;51.162;13.906;2023-12-20T19:29:46;7.90;99.90
8886;DHT22;4479;51.162;13.906;2023-12-20T19:49:52;7.80;99.90
8886;DHT22;4479;51.162;13.906;2023-12-20T20:09:58;7.80;99.90
8886;DHT22;4479;51.162;13.906;2023-12-20T20:30:06;8.00;99.90
8886;DHT22;4479;51.162;13.906;2023-12-20T20:40:09;4.50;99.90
8886;DHT22;4479;51.162;13.906;2023-12-20T20:50:19;8.10;99.90
8886;DHT22;4479;51.162;13.906;2023-12-20T21:10:26;9.90;99.90
8886;DHT22;4479;51.162;13.906;2023-12-20T21:30:32;8.30;99.90
8886;DHT22;4479;51.162;13.906;2023-12-20T21:50:38;8.40;99.90
8886;DHT22;4479;51.162;13.906;2023-12-20T22:10:45;8.40;99.90
8886;DHT22;4479;51.162;13.906;2023-12-20T22:30:51;8.50;99.90
8886;DHT22;4479;51.162;13.906;2023-12-20T22:50:56;8.50;99.90
8886;DHT22;4479;51.162;13.906;2023-12-20T23:11:02;8.60;99.90
8886;DHT22;4479;51.162;13.906;2023-12-20T23:31:09;8.70;99.90
8886;DHT22;4479;51.162;13.906;2023-12-20T23:51:15;8.70;99.90
